createdAt,value
2016-11-30T00:00:43.525Z,1028.78
2016-11-30T00:01:44.153Z,1028.77
2016-11-30T00:02:44.813Z,1028.8
2016-11-30T00:03:45.472Z,1028.79
2016-11-30T00:04:46.161Z,1028.81
2016-11-30T00:05:46.764Z,1028.78
2016-11-30T00:06:47.425Z,1028.7
2016-11-30T00:07:48.074Z,1028.71
2016-11-30T00:08:48.765Z,1028.64
2016-11-30T00:09:49.453Z,1028.64
2016-11-30T00:10:50.041Z,1028.68
2016-11-30T00:11:50.682Z,1028.68
2016-11-30T00:12:51.315Z,1028.59
2016-11-30T00:13:51.956Z,1028.6
2016-11-30T00:14:52.619Z,1028.58
2016-11-30T00:15:53.232Z,1028.56
2016-11-30T00:16:53.885Z,1028.59
2016-11-30T00:17:54.528Z,1028.64
2016-11-30T00:18:55.169Z,1028.63
2016-11-30T00:19:55.795Z,1028.58
2016-11-30T00:20:56.430Z,1028.63
2016-11-30T00:21:57.059Z,1028.57
2016-11-30T00:22:57.720Z,1028.56
2016-11-30T00:23:58.500Z,1028.49
2016-11-30T00:24:59.128Z,1028.46
2016-11-30T00:25:59.760Z,1028.46
2016-11-30T00:27:00.419Z,1028.44
2016-11-30T00:28:01.061Z,1028.4
2016-11-30T00:29:01.722Z,1028.39
2016-11-30T00:30:02.418Z,1028.27
2016-11-30T00:31:03.076Z,1028.33
2016-11-30T00:32:03.688Z,1028.36
2016-11-30T00:33:04.358Z,1028.34
2016-11-30T00:34:04.986Z,1028.41
2016-11-30T00:35:05.627Z,1028.46
2016-11-30T00:36:06.293Z,1028.43
2016-11-30T00:37:06.928Z,1028.4
2016-11-30T00:38:07.558Z,1028.42
2016-11-30T00:39:08.211Z,1028.44
2016-11-30T00:40:08.879Z,1028.41
2016-11-30T00:41:09.511Z,1028.35
2016-11-30T00:42:10.179Z,1028.36
2016-11-30T00:43:10.879Z,1028.34
2016-11-30T00:44:11.533Z,1028.25
2016-11-30T00:45:12.194Z,1028.29
2016-11-30T00:46:12.868Z,1028.32
2016-11-30T00:47:13.535Z,1028.26
2016-11-30T00:48:14.193Z,1028.3
2016-11-30T00:49:14.833Z,1028.27
2016-11-30T00:50:15.499Z,1028.26
2016-11-30T00:51:16.137Z,1028.34
2016-11-30T00:52:16.786Z,1028.26
2016-11-30T00:53:17.448Z,1028.11
2016-11-30T00:54:18.088Z,1028.21
2016-11-30T00:55:18.729Z,1028.13
2016-11-30T00:56:19.381Z,1028.13
2016-11-30T00:57:20.044Z,1028.16
2016-11-30T00:58:20.748Z,1028.22
2016-11-30T00:59:21.408Z,1028.14
2016-11-30T01:00:22.060Z,1028.18
2016-11-30T01:01:22.710Z,1028.17
2016-11-30T01:02:23.336Z,1028.17
2016-11-30T01:03:23.988Z,1028.15
2016-11-30T01:04:24.633Z,1028.08
2016-11-30T01:05:25.203Z,1028.16
2016-11-30T01:06:25.888Z,1028.12
2016-11-30T01:07:26.505Z,1028.14
2016-11-30T01:08:27.156Z,1028.07
2016-11-30T01:09:27.832Z,1028.1
2016-11-30T01:10:28.471Z,1028.05
2016-11-30T01:11:29.078Z,1028.11
2016-11-30T01:12:29.698Z,1028.08
2016-11-30T01:13:30.339Z,1028.04
2016-11-30T01:14:31.004Z,1028.07
2016-11-30T01:15:31.684Z,1028.17
2016-11-30T01:16:32.336Z,1028.17
2016-11-30T01:17:32.997Z,1028.22
2016-11-30T01:18:33.658Z,1028.15
2016-11-30T01:19:34.309Z,1028.2
2016-11-30T01:20:34.967Z,1028.17
2016-11-30T01:21:35.627Z,1028.14
2016-11-30T01:22:36.337Z,1028.17
2016-11-30T01:23:36.947Z,1028.17
2016-11-30T01:24:37.585Z,1028.13
2016-11-30T01:25:38.276Z,1028.18
2016-11-30T01:26:38.889Z,1028.08
2016-11-30T01:27:39.532Z,1028.07
2016-11-30T01:28:40.151Z,1028.06
2016-11-30T01:29:40.796Z,1028.05
2016-11-30T01:30:41.436Z,1028.04
2016-11-30T01:31:42.070Z,1028.06
2016-11-30T01:32:42.780Z,1028.05
2016-11-30T01:33:43.384Z,1028.07
2016-11-30T01:34:44.047Z,1028.01
2016-11-30T01:35:44.737Z,1028.01
2016-11-30T01:36:45.357Z,1028.06
2016-11-30T01:37:46.065Z,1028.06
2016-11-30T01:38:46.744Z,1028.03
2016-11-30T01:39:47.375Z,1027.97
2016-11-30T01:40:48.004Z,1027.96
2016-11-30T01:41:48.683Z,1027.96
2016-11-30T01:42:49.431Z,1028.01
2016-11-30T01:43:50.017Z,1027.96
2016-11-30T01:44:50.653Z,1027.93
2016-11-30T01:45:51.385Z,1027.97
2016-11-30T01:46:52.058Z,1028.06
2016-11-30T01:47:52.755Z,1028.01
2016-11-30T01:48:53.397Z,1028.02
2016-11-30T01:49:53.996Z,1028.02
2016-11-30T01:50:54.638Z,1027.99
2016-11-30T01:51:55.289Z,1028.01
2016-11-30T01:52:55.934Z,1027.94
2016-11-30T01:53:56.592Z,1027.92
2016-11-30T01:54:57.252Z,1027.92
2016-11-30T01:55:57.896Z,1027.82
2016-11-30T01:56:58.542Z,1027.74
2016-11-30T01:57:59.206Z,1027.69
2016-11-30T01:58:59.864Z,1027.72
2016-11-30T02:00:00.545Z,1027.64
2016-11-30T02:01:01.149Z,1027.64
2016-11-30T02:02:01.798Z,1027.76
2016-11-30T02:03:02.444Z,1027.61
2016-11-30T02:04:03.117Z,1027.73
2016-11-30T02:05:03.805Z,1027.66
2016-11-30T02:06:04.477Z,1027.67
2016-11-30T02:07:05.115Z,1027.6
2016-11-30T02:08:05.719Z,1027.69
2016-11-30T02:09:06.404Z,1027.68
2016-11-30T02:10:07.109Z,1027.68
2016-11-30T02:11:07.689Z,1027.62
2016-11-30T02:12:08.319Z,1027.63
2016-11-30T02:13:08.954Z,1027.58
2016-11-30T02:14:09.606Z,1027.55
2016-11-30T02:15:10.248Z,1027.56
2016-11-30T02:16:10.890Z,1027.6
2016-11-30T02:17:11.516Z,1027.54
2016-11-30T02:18:12.151Z,1027.5
2016-11-30T02:19:12.802Z,1027.52
2016-11-30T02:20:13.422Z,1027.48
2016-11-30T02:21:14.056Z,1027.44
2016-11-30T02:22:14.694Z,1027.47
2016-11-30T02:23:15.342Z,1027.45
2016-11-30T02:24:16.025Z,1027.45
2016-11-30T02:25:16.682Z,1027.47
2016-11-30T02:26:17.366Z,1027.43
2016-11-30T02:27:18.005Z,1027.5
2016-11-30T02:28:18.708Z,1027.56
2016-11-30T02:29:19.347Z,1027.57
2016-11-30T02:30:19.999Z,1027.56
2016-11-30T02:31:20.638Z,1027.54
2016-11-30T02:32:21.326Z,1027.54
2016-11-30T02:33:21.973Z,1027.5
2016-11-30T02:34:22.590Z,1027.48
2016-11-30T02:35:23.220Z,1027.51
2016-11-30T02:36:23.890Z,1027.45
2016-11-30T02:37:24.509Z,1027.48
2016-11-30T02:38:25.152Z,1027.55
2016-11-30T02:39:25.794Z,1027.49
2016-11-30T02:40:26.476Z,1027.48
2016-11-30T02:41:27.082Z,1027.51
2016-11-30T02:42:27.730Z,1027.57
2016-11-30T02:43:28.388Z,1027.49
2016-11-30T02:44:29.047Z,1027.45
2016-11-30T02:45:29.681Z,1027.49
2016-11-30T02:46:30.318Z,1027.45
2016-11-30T02:47:30.957Z,1027.44
2016-11-30T02:48:31.606Z,1027.42
2016-11-30T02:49:32.267Z,1027.35
2016-11-30T02:50:32.906Z,1027.42
2016-11-30T02:51:33.572Z,1027.32
2016-11-30T02:52:34.197Z,1027.27
2016-11-30T02:53:34.860Z,1027.34
2016-11-30T02:54:35.519Z,1027.35
2016-11-30T02:55:36.162Z,1027.32
2016-11-30T02:56:36.803Z,1027.37
2016-11-30T02:57:37.434Z,1027.32
2016-11-30T02:58:38.134Z,1027.32
2016-11-30T02:59:38.734Z,1027.29
2016-11-30T03:00:39.397Z,1027.29
2016-11-30T03:01:40.068Z,1027.2
2016-11-30T03:02:40.749Z,1027.21
2016-11-30T03:03:41.345Z,1027.18
2016-11-30T03:04:42.012Z,1027.21
2016-11-30T03:05:42.666Z,1027.17
2016-11-30T03:06:43.320Z,1027.13
2016-11-30T03:07:43.957Z,1027.17
2016-11-30T03:08:44.592Z,1027.12
2016-11-30T03:09:45.303Z,1027.19
2016-11-30T03:10:45.973Z,1027.15
2016-11-30T03:11:46.551Z,1027.13
2016-11-30T03:12:47.200Z,1027.13
2016-11-30T03:13:47.845Z,1027.13
2016-11-30T03:14:48.503Z,1027.1
2016-11-30T03:15:49.158Z,1027.04
2016-11-30T03:16:49.776Z,1027.06
2016-11-30T03:17:50.414Z,1027.14
2016-11-30T03:18:51.084Z,1027.12
2016-11-30T03:19:51.714Z,1027.1
2016-11-30T03:20:52.388Z,1027.1
2016-11-30T03:21:53.049Z,1027.1
2016-11-30T03:22:53.680Z,1027.07
2016-11-30T03:23:54.359Z,1027.1
2016-11-30T03:24:55.000Z,1027.06
2016-11-30T03:25:55.638Z,1026.95
2016-11-30T03:26:56.307Z,1026.95
2016-11-30T03:27:56.949Z,1026.92
2016-11-30T03:28:57.587Z,1026.96
2016-11-30T03:29:58.215Z,1026.92
2016-11-30T03:30:58.911Z,1026.97
2016-11-30T03:31:59.531Z,1026.97
2016-11-30T03:33:00.188Z,1027.03
2016-11-30T03:34:00.852Z,1026.96
2016-11-30T03:35:01.457Z,1026.99
2016-11-30T03:36:02.097Z,1027.01
2016-11-30T03:37:02.763Z,1026.92
2016-11-30T03:38:03.372Z,1026.95
2016-11-30T03:39:04.032Z,1026.97
2016-11-30T03:40:04.694Z,1027.03
2016-11-30T03:41:05.328Z,1026.99
2016-11-30T03:42:06.017Z,1027.01
2016-11-30T03:43:06.649Z,1027.02
2016-11-30T03:44:07.360Z,1026.99
2016-11-30T03:45:08.015Z,1026.97
2016-11-30T03:46:08.718Z,1027.04
2016-11-30T03:47:09.325Z,1026.93
2016-11-30T03:48:09.962Z,1026.9
2016-11-30T03:49:10.630Z,1026.9
2016-11-30T03:50:11.292Z,1026.83
2016-11-30T03:51:11.959Z,1026.79
2016-11-30T03:52:12.605Z,1026.79
2016-11-30T03:53:13.282Z,1026.63
2016-11-30T03:54:13.888Z,1026.69
2016-11-30T03:55:14.563Z,1026.64
2016-11-30T03:56:15.195Z,1026.73
2016-11-30T03:57:15.885Z,1026.74
2016-11-30T03:58:16.480Z,1026.74
2016-11-30T03:59:17.179Z,1026.78
2016-11-30T04:00:17.789Z,1026.76
2016-11-30T04:01:18.435Z,1026.76
2016-11-30T04:02:19.126Z,1026.77
2016-11-30T04:03:19.734Z,1026.75
2016-11-30T04:04:20.375Z,1026.78
2016-11-30T04:05:21.067Z,1026.74
2016-11-30T04:06:21.646Z,1026.79
2016-11-30T04:07:22.304Z,1026.76
2016-11-30T04:08:22.961Z,1026.74
2016-11-30T04:09:23.594Z,1026.73
2016-11-30T04:10:24.234Z,1026.84
2016-11-30T04:11:24.901Z,1026.84
2016-11-30T04:12:25.572Z,1026.82
2016-11-30T04:13:26.202Z,1026.81
2016-11-30T04:14:26.816Z,1026.76
2016-11-30T04:15:27.517Z,1026.86
2016-11-30T04:16:28.157Z,1026.82
2016-11-30T04:17:28.839Z,1026.81
2016-11-30T04:18:29.480Z,1026.82
2016-11-30T04:19:30.162Z,1026.79
2016-11-30T04:20:30.779Z,1026.76
2016-11-30T04:21:31.418Z,1026.71
2016-11-30T04:22:32.060Z,1026.77
2016-11-30T04:23:32.728Z,1026.76
2016-11-30T04:24:33.366Z,1026.76
2016-11-30T04:25:34.025Z,1026.75
2016-11-30T04:26:34.674Z,1026.73
2016-11-30T04:27:35.331Z,1026.65
2016-11-30T04:28:35.957Z,1026.7
2016-11-30T04:29:36.615Z,1026.74
2016-11-30T04:30:37.243Z,1026.7
2016-11-30T04:31:37.889Z,1026.75
2016-11-30T04:32:38.564Z,1026.76
2016-11-30T04:33:39.178Z,1026.69
2016-11-30T04:34:39.801Z,1026.68
2016-11-30T04:35:40.422Z,1026.7
2016-11-30T04:36:41.070Z,1026.65
2016-11-30T04:37:41.711Z,1026.63
2016-11-30T04:38:42.384Z,1026.63
2016-11-30T04:39:43.037Z,1026.6
2016-11-30T04:40:43.660Z,1026.64
2016-11-30T04:41:44.331Z,1026.65
2016-11-30T04:42:44.956Z,1026.61
2016-11-30T04:43:45.642Z,1026.55
2016-11-30T04:44:46.280Z,1026.54
2016-11-30T04:45:46.873Z,1026.5
2016-11-30T04:46:47.515Z,1026.47
2016-11-30T04:47:48.145Z,1026.47
2016-11-30T04:48:48.825Z,1026.43
2016-11-30T04:49:49.466Z,1026.46
2016-11-30T04:50:50.121Z,1026.47
2016-11-30T04:51:50.776Z,1026.45
2016-11-30T04:52:51.397Z,1026.47
2016-11-30T04:53:52.036Z,1026.41
2016-11-30T04:54:52.673Z,1026.37
2016-11-30T04:55:53.313Z,1026.32
2016-11-30T04:56:53.953Z,1026.45
2016-11-30T04:57:54.591Z,1026.38
2016-11-30T04:58:55.224Z,1026.38
2016-11-30T04:59:55.864Z,1026.33
2016-11-30T05:00:56.524Z,1026.35
2016-11-30T05:01:57.164Z,1026.38
2016-11-30T05:02:57.874Z,1026.34
2016-11-30T05:03:58.460Z,1026.37
2016-11-30T05:04:59.146Z,1026.28
2016-11-30T05:05:59.793Z,1026.38
2016-11-30T05:07:00.430Z,1026.37
2016-11-30T05:08:01.073Z,1026.31
2016-11-30T05:09:01.715Z,1026.28
2016-11-30T05:10:02.390Z,1026.21
2016-11-30T05:11:03.023Z,1026.26
2016-11-30T05:12:03.616Z,1026.2
2016-11-30T05:13:04.329Z,1026.19
2016-11-30T05:14:04.975Z,1026.24
2016-11-30T05:15:05.610Z,1026.28
2016-11-30T05:16:06.263Z,1026.21
2016-11-30T05:17:06.910Z,1026.23
2016-11-30T05:18:07.615Z,1026.21
2016-11-30T05:19:08.208Z,1026.18
2016-11-30T05:20:08.871Z,1026.17
2016-11-30T05:21:09.529Z,1026.1
2016-11-30T05:22:10.194Z,1026.18
2016-11-30T05:23:10.870Z,1026.2
2016-11-30T05:24:11.577Z,1026.18
2016-11-30T05:25:12.223Z,1026.16
2016-11-30T05:26:12.870Z,1026.19
2016-11-30T05:27:13.509Z,1026.15
2016-11-30T05:28:14.137Z,1026.26
2016-11-30T05:29:14.819Z,1026.23
2016-11-30T05:30:15.452Z,1026.21
2016-11-30T05:31:16.096Z,1026.12
2016-11-30T05:32:16.736Z,1026.16
2016-11-30T05:33:17.356Z,1026.09
2016-11-30T05:34:17.981Z,1026.1
2016-11-30T05:35:18.606Z,1026.07
2016-11-30T05:36:19.256Z,1026.1
2016-11-30T05:37:19.890Z,1026.02
2016-11-30T05:38:20.532Z,1025.97
2016-11-30T05:39:21.177Z,1026.04
2016-11-30T05:40:21.841Z,1026.01
2016-11-30T05:41:22.503Z,1026
2016-11-30T05:42:23.153Z,1025.9
2016-11-30T05:43:23.794Z,1025.97
2016-11-30T05:44:24.451Z,1025.94
2016-11-30T05:45:25.104Z,1025.92
2016-11-30T05:46:25.730Z,1025.92
2016-11-30T05:47:26.365Z,1025.98
2016-11-30T05:48:27.023Z,1025.94
2016-11-30T05:49:27.661Z,1025.93
2016-11-30T05:50:28.284Z,1025.94
2016-11-30T05:51:28.937Z,1025.95
2016-11-30T05:52:29.556Z,1025.96
2016-11-30T05:53:30.178Z,1025.92
2016-11-30T05:54:30.827Z,1025.93
2016-11-30T05:55:31.525Z,1025.92
2016-11-30T05:56:32.197Z,1025.9
2016-11-30T05:57:32.824Z,1025.84
2016-11-30T05:58:33.495Z,1025.97
2016-11-30T05:59:34.145Z,1025.95
2016-11-30T06:00:34.782Z,1025.95
2016-11-30T06:01:35.428Z,1025.92
2016-11-30T06:02:36.081Z,1025.88
2016-11-30T06:03:36.700Z,1025.87
2016-11-30T06:04:37.434Z,1025.87
2016-11-30T06:05:38.006Z,1025.9
2016-11-30T06:06:38.632Z,1025.91
2016-11-30T06:07:39.270Z,1025.83
2016-11-30T06:08:39.902Z,1025.86
2016-11-30T06:09:40.530Z,1025.86
2016-11-30T06:10:41.248Z,1025.8
2016-11-30T06:11:41.830Z,1025.88
2016-11-30T06:12:42.472Z,1025.83
2016-11-30T06:13:43.112Z,1025.81
2016-11-30T06:14:43.764Z,1025.82
2016-11-30T06:15:44.399Z,1025.84
2016-11-30T06:16:45.047Z,1025.8
2016-11-30T06:17:45.687Z,1025.73
2016-11-30T06:18:46.353Z,1025.8
2016-11-30T06:19:46.999Z,1025.74
2016-11-30T06:20:47.644Z,1025.77
2016-11-30T06:21:48.311Z,1025.74
2016-11-30T06:22:48.978Z,1025.72
2016-11-30T06:23:49.604Z,1025.76
2016-11-30T06:24:50.247Z,1025.83
2016-11-30T06:25:50.932Z,1025.71
2016-11-30T06:26:51.543Z,1025.61
2016-11-30T06:27:52.175Z,1025.69
2016-11-30T06:28:52.814Z,1025.68
2016-11-30T06:29:53.464Z,1025.69
2016-11-30T06:30:54.078Z,1025.66
2016-11-30T06:31:54.719Z,1025.6
2016-11-30T06:32:55.379Z,1025.7
2016-11-30T06:33:56.013Z,1025.66
2016-11-30T06:34:56.721Z,1025.65
2016-11-30T06:35:57.364Z,1025.65
2016-11-30T06:36:57.990Z,1025.69
2016-11-30T06:37:58.781Z,1025.66
2016-11-30T06:38:59.418Z,1025.62
2016-11-30T06:40:00.062Z,1025.61
2016-11-30T06:41:00.749Z,1025.57
2016-11-30T06:42:01.362Z,1025.58
2016-11-30T06:43:02.028Z,1025.54
2016-11-30T06:44:02.653Z,1025.6
2016-11-30T06:45:03.286Z,1025.63
2016-11-30T06:46:03.921Z,1025.52
2016-11-30T06:47:04.569Z,1025.58
2016-11-30T06:48:05.215Z,1025.66
2016-11-30T06:49:05.905Z,1025.56
2016-11-30T06:50:06.486Z,1025.48
2016-11-30T06:51:07.144Z,1025.48
2016-11-30T06:52:07.769Z,1025.47
2016-11-30T06:53:08.399Z,1025.56
2016-11-30T06:54:09.023Z,1025.57
2016-11-30T06:55:09.688Z,1025.55
2016-11-30T06:56:10.372Z,1025.56
2016-11-30T06:57:11.032Z,1025.57
2016-11-30T06:58:11.652Z,1025.55
2016-11-30T06:59:12.267Z,1025.58
2016-11-30T07:00:12.896Z,1025.63
2016-11-30T07:01:13.511Z,1025.66
2016-11-30T07:02:14.168Z,1025.71
2016-11-30T07:03:14.824Z,1025.65
2016-11-30T07:04:15.493Z,1025.63
2016-11-30T07:05:16.166Z,1025.62
2016-11-30T07:06:16.807Z,1025.64
2016-11-30T07:07:17.509Z,1025.62
2016-11-30T07:08:18.216Z,1025.56
2016-11-30T07:09:18.861Z,1025.67
2016-11-30T07:10:19.559Z,1025.67
2016-11-30T07:11:20.213Z,1025.67
2016-11-30T07:12:20.864Z,1025.75
2016-11-30T07:13:21.620Z,1025.76
2016-11-30T07:14:22.263Z,1025.74
2016-11-30T07:15:22.875Z,1025.88
2016-11-30T07:16:23.534Z,1025.89
2016-11-30T07:17:24.249Z,1025.82
2016-11-30T07:18:24.870Z,1025.83
2016-11-30T07:19:25.500Z,1025.76
2016-11-30T07:20:26.204Z,1025.75
2016-11-30T07:21:26.866Z,1025.8
2016-11-30T07:22:27.538Z,1025.7
2016-11-30T07:23:28.148Z,1025.76
2016-11-30T07:24:28.780Z,1025.83
2016-11-30T07:25:29.498Z,1025.82
2016-11-30T07:26:30.155Z,1025.81
2016-11-30T07:27:30.788Z,1025.79
2016-11-30T07:28:31.424Z,1025.85
2016-11-30T07:29:32.054Z,1025.88
2016-11-30T07:30:32.743Z,1025.87
2016-11-30T07:31:33.330Z,1025.83
2016-11-30T07:32:33.958Z,1025.83
2016-11-30T07:33:34.611Z,1025.81
2016-11-30T07:34:35.238Z,1025.83
2016-11-30T07:35:35.893Z,1025.85
2016-11-30T07:36:36.502Z,1025.9
2016-11-30T07:37:37.186Z,1025.89
2016-11-30T07:38:37.810Z,1025.89
2016-11-30T07:39:38.470Z,1025.86
2016-11-30T07:40:39.129Z,1025.88
2016-11-30T07:41:39.814Z,1025.77
2016-11-30T07:42:40.409Z,1025.75
2016-11-30T07:43:41.087Z,1025.69
2016-11-30T07:44:41.713Z,1025.62
2016-11-30T07:45:42.376Z,1025.63
2016-11-30T07:46:43.013Z,1025.54
2016-11-30T07:47:43.645Z,1025.53
2016-11-30T07:48:44.289Z,1025.43
2016-11-30T07:49:44.935Z,1025.47
2016-11-30T07:50:45.593Z,1025.45
2016-11-30T07:51:46.297Z,1025.5
2016-11-30T07:52:46.937Z,1025.49
2016-11-30T07:53:47.610Z,1025.58
2016-11-30T07:54:48.292Z,1025.55
2016-11-30T07:55:48.889Z,1025.57
2016-11-30T07:56:49.565Z,1025.52
2016-11-30T07:57:50.233Z,1025.54
2016-11-30T07:58:50.874Z,1025.59
2016-11-30T07:59:51.516Z,1025.61
2016-11-30T08:00:52.221Z,1025.58
2016-11-30T08:01:52.823Z,1025.53
2016-11-30T08:02:53.487Z,1025.54
2016-11-30T08:03:54.191Z,1025.52
2016-11-30T08:04:54.868Z,1025.57
2016-11-30T08:05:55.512Z,1025.5
2016-11-30T08:06:56.147Z,1025.49
2016-11-30T08:07:56.891Z,1025.48
2016-11-30T08:08:57.560Z,1025.52
2016-11-30T08:09:58.203Z,1025.45
2016-11-30T08:10:58.834Z,1025.39
2016-11-30T08:11:59.506Z,1025.46
2016-11-30T08:13:00.155Z,1025.36
2016-11-30T08:14:00.807Z,1025.37
2016-11-30T08:15:01.502Z,1025.42
2016-11-30T08:16:02.245Z,1025.48
2016-11-30T08:17:02.869Z,1025.48
2016-11-30T08:18:03.642Z,1025.46
2016-11-30T08:19:04.272Z,1025.48
2016-11-30T08:20:05.100Z,1025.48
2016-11-30T08:21:05.648Z,1025.5
2016-11-30T08:22:06.321Z,1025.54
2016-11-30T08:23:07.130Z,1025.53
2016-11-30T08:24:07.777Z,1025.57
2016-11-30T08:25:08.479Z,1025.53
2016-11-30T08:26:09.089Z,1025.6
2016-11-30T08:27:09.756Z,1025.59
2016-11-30T08:28:10.567Z,1025.62
2016-11-30T08:29:11.219Z,1025.67
2016-11-30T08:30:11.892Z,1025.7
2016-11-30T08:31:12.575Z,1025.73
2016-11-30T08:32:13.353Z,1025.65
2016-11-30T08:33:14.120Z,1025.67
2016-11-30T08:34:14.737Z,1025.7
2016-11-30T08:35:15.451Z,1025.64
2016-11-30T08:36:16.180Z,1025.62
2016-11-30T08:37:16.907Z,1025.65
2016-11-30T08:38:17.550Z,1025.64
2016-11-30T08:39:18.207Z,1025.66
2016-11-30T08:40:18.897Z,1025.68
2016-11-30T08:41:19.540Z,1025.64
2016-11-30T08:42:20.204Z,1025.61
2016-11-30T08:43:20.959Z,1025.6
2016-11-30T08:44:21.591Z,1025.61
2016-11-30T08:45:22.275Z,1025.63
2016-11-30T08:46:22.909Z,1025.55
2016-11-30T08:47:23.548Z,1025.56
2016-11-30T08:48:24.259Z,1025.52
2016-11-30T08:49:24.983Z,1025.53
2016-11-30T08:50:25.677Z,1025.53
2016-11-30T08:51:26.328Z,1025.55
2016-11-30T08:52:27.032Z,1025.49
2016-11-30T08:53:27.710Z,1025.44
2016-11-30T08:54:28.446Z,1025.42
2016-11-30T08:55:29.113Z,1025.37
2016-11-30T08:56:29.824Z,1025.35
2016-11-30T08:57:30.569Z,1025.42
2016-11-30T08:58:31.305Z,1025.44
2016-11-30T08:59:31.952Z,1025.45
2016-11-30T09:00:32.616Z,1025.42
2016-11-30T09:01:33.324Z,1025.41
2016-11-30T09:02:34.053Z,1025.49
2016-11-30T09:03:34.710Z,1025.42
2016-11-30T09:04:35.385Z,1025.41
2016-11-30T09:05:36.141Z,1025.38
2016-11-30T09:06:36.733Z,1025.36
2016-11-30T09:07:37.490Z,1025.44
2016-11-30T09:08:38.139Z,1025.43
2016-11-30T09:09:38.793Z,1025.46
2016-11-30T09:10:39.517Z,1025.41
2016-11-30T09:11:40.218Z,1025.39
2016-11-30T09:12:40.866Z,1025.33
2016-11-30T09:13:41.624Z,1025.34
2016-11-30T09:14:42.286Z,1025.32
2016-11-30T09:15:43.000Z,1025.29
2016-11-30T09:16:43.615Z,1025.22
2016-11-30T09:17:44.430Z,1025.28
2016-11-30T09:18:45.050Z,1025.26
2016-11-30T09:19:45.727Z,1025.29
2016-11-30T09:20:46.408Z,1025.3
2016-11-30T09:21:47.108Z,1025.29
2016-11-30T09:22:47.727Z,1025.34
2016-11-30T09:23:48.436Z,1025.28
2016-11-30T09:24:49.196Z,1025.33
2016-11-30T09:25:49.830Z,1025.36
2016-11-30T09:26:50.594Z,1025.39
2016-11-30T09:27:51.380Z,1025.43
2016-11-30T09:28:52.108Z,1025.42
2016-11-30T09:29:52.707Z,1025.47
2016-11-30T09:30:53.437Z,1025.43
2016-11-30T09:31:54.122Z,1025.47
2016-11-30T09:32:54.790Z,1025.46
2016-11-30T09:33:55.535Z,1025.54
2016-11-30T09:34:56.273Z,1025.52
2016-11-30T09:35:57.063Z,1025.48
2016-11-30T09:36:57.733Z,1025.47
2016-11-30T09:37:58.450Z,1025.47
2016-11-30T09:38:59.157Z,1025.4
2016-11-30T09:39:59.840Z,1025.45
2016-11-30T09:41:00.607Z,1025.46
2016-11-30T09:42:01.309Z,1025.5
2016-11-30T09:43:01.985Z,1025.44
2016-11-30T09:44:02.626Z,1025.4
2016-11-30T09:45:03.446Z,1025.42
2016-11-30T09:46:04.095Z,1025.44
2016-11-30T09:47:04.845Z,1025.52
2016-11-30T09:48:05.483Z,1025.49
2016-11-30T09:49:06.219Z,1025.39
2016-11-30T09:50:06.892Z,1025.4
2016-11-30T09:51:07.525Z,1025.43
2016-11-30T09:52:08.294Z,1025.42
2016-11-30T09:53:09.067Z,1025.46
2016-11-30T09:54:09.658Z,1025.4
2016-11-30T09:55:10.369Z,1025.4
2016-11-30T09:56:11.080Z,1025.4
2016-11-30T09:57:11.754Z,1025.35
2016-11-30T09:58:12.424Z,1025.36
2016-11-30T09:59:13.101Z,1025.23
2016-11-30T10:00:13.816Z,1025.34
2016-11-30T10:01:14.538Z,1025.24
2016-11-30T10:02:15.216Z,1025.28
2016-11-30T10:03:15.888Z,1025.3
2016-11-30T10:04:16.663Z,1025.3
2016-11-30T10:05:17.522Z,1025.26
2016-11-30T10:06:18.184Z,1025.2
2016-11-30T10:07:18.869Z,1025.29
2016-11-30T10:08:19.588Z,1025.25
2016-11-30T10:09:20.345Z,1025.27
2016-11-30T10:10:20.978Z,1025.26
2016-11-30T10:11:21.680Z,1025.32
2016-11-30T10:12:22.345Z,1025.23
2016-11-30T10:13:23.095Z,1025.17
2016-11-30T10:14:23.704Z,1025.22
2016-11-30T10:15:24.409Z,1025.28
2016-11-30T10:16:25.209Z,1025.21
2016-11-30T10:17:25.878Z,1025.24
2016-11-30T10:18:26.659Z,1025.26
2016-11-30T10:19:27.264Z,1025.22
2016-11-30T10:20:27.972Z,1025.24
2016-11-30T10:21:28.682Z,1025.2
2016-11-30T10:22:29.404Z,1025.16
2016-11-30T10:23:30.091Z,1025.06
2016-11-30T10:24:30.776Z,1025.05
2016-11-30T10:25:31.482Z,1025
2016-11-30T10:26:32.093Z,1024.99
2016-11-30T10:27:32.828Z,1025
2016-11-30T10:28:33.661Z,1024.97
2016-11-30T10:29:34.355Z,1024.95
2016-11-30T10:30:35.054Z,1024.91
2016-11-30T10:31:35.745Z,1024.94
2016-11-30T10:32:36.400Z,1024.87
2016-11-30T10:33:37.087Z,1024.91
2016-11-30T10:34:37.736Z,1024.95
2016-11-30T10:35:38.426Z,1024.93
2016-11-30T10:36:39.158Z,1025.02
2016-11-30T10:37:39.779Z,1024.99
2016-11-30T10:38:40.475Z,1025.03
2016-11-30T10:39:41.179Z,1025.08
2016-11-30T10:40:41.881Z,1025.08
2016-11-30T10:41:42.589Z,1025.05
2016-11-30T10:42:43.279Z,1025.07
2016-11-30T10:43:43.985Z,1025.1
2016-11-30T10:44:44.784Z,1025.12
2016-11-30T10:45:45.431Z,1025.13
2016-11-30T10:46:46.149Z,1025.13
2016-11-30T10:47:46.862Z,1025.11
2016-11-30T10:48:47.546Z,1025.11
2016-11-30T10:49:48.196Z,1025.08
2016-11-30T10:50:48.891Z,1025.09
2016-11-30T10:51:49.593Z,1025.02
2016-11-30T10:52:50.207Z,1024.96
2016-11-30T10:53:51.001Z,1024.86
2016-11-30T10:54:51.724Z,1024.85
2016-11-30T10:55:52.396Z,1024.8
2016-11-30T10:56:53.136Z,1024.76
2016-11-30T10:57:53.831Z,1024.82
2016-11-30T10:58:54.548Z,1024.71
2016-11-30T10:59:55.304Z,1024.8
2016-11-30T11:00:55.981Z,1024.64
2016-11-30T11:01:56.670Z,1024.75
2016-11-30T11:02:57.324Z,1024.69
2016-11-30T11:03:57.969Z,1024.75
2016-11-30T11:04:58.619Z,1024.73
2016-11-30T11:05:59.280Z,1024.75
2016-11-30T11:06:59.921Z,1024.76
2016-11-30T11:08:00.588Z,1024.69
2016-11-30T11:09:01.243Z,1024.77
2016-11-30T11:10:01.890Z,1024.69
2016-11-30T11:11:02.554Z,1024.69
2016-11-30T11:12:03.237Z,1024.64
2016-11-30T11:13:03.889Z,1024.64
2016-11-30T11:14:04.539Z,1024.62
2016-11-30T11:15:05.180Z,1024.63
2016-11-30T11:16:05.916Z,1024.63
2016-11-30T11:17:06.477Z,1024.68
2016-11-30T11:18:07.114Z,1024.61
2016-11-30T11:19:07.752Z,1024.65
2016-11-30T11:20:08.449Z,1024.59
2016-11-30T11:21:09.095Z,1024.64
2016-11-30T11:22:09.721Z,1024.59
2016-11-30T11:23:10.374Z,1024.54
2016-11-30T11:24:11.033Z,1024.5
2016-11-30T11:25:11.702Z,1024.49
2016-11-30T11:26:12.336Z,1024.41
2016-11-30T11:27:13.080Z,1024.41
2016-11-30T11:28:13.680Z,1024.27
2016-11-30T11:29:14.364Z,1024.33
2016-11-30T11:30:14.987Z,1024.4
2016-11-30T11:31:15.641Z,1024.38
2016-11-30T11:32:16.298Z,1024.36
2016-11-30T11:33:16.950Z,1024.36
2016-11-30T11:34:17.610Z,1024.33
2016-11-30T11:35:18.264Z,1024.27
2016-11-30T11:36:18.951Z,1024.35
2016-11-30T11:37:19.563Z,1024.32
2016-11-30T11:38:20.256Z,1024.28
2016-11-30T11:39:20.891Z,1024.34
2016-11-30T11:40:21.567Z,1024.28
2016-11-30T11:41:22.228Z,1024.28
2016-11-30T11:42:22.945Z,1024.23
2016-11-30T11:43:23.613Z,1024.26
2016-11-30T11:44:24.255Z,1024.33
2016-11-30T11:45:24.912Z,1024.26
2016-11-30T11:46:25.573Z,1024.27
2016-11-30T11:47:26.232Z,1024.18
2016-11-30T11:48:26.878Z,1024.22
2016-11-30T11:49:27.511Z,1024.2
2016-11-30T11:50:28.194Z,1024.12
2016-11-30T11:51:28.857Z,1024.15
2016-11-30T11:52:29.519Z,1024.12
2016-11-30T11:53:30.227Z,1024.06
2016-11-30T11:54:30.899Z,1024.12
2016-11-30T11:55:31.562Z,1024.07
2016-11-30T11:56:32.289Z,1024.08
2016-11-30T11:57:32.879Z,1024.14
2016-11-30T11:58:33.526Z,1024.1
2016-11-30T11:59:34.210Z,1024.08
2016-11-30T12:00:34.893Z,1024.11
2016-11-30T12:01:35.537Z,1024.06
2016-11-30T12:02:36.245Z,1024.04
2016-11-30T12:03:36.967Z,1024.09
2016-11-30T12:04:37.585Z,1024.08
2016-11-30T12:05:38.249Z,1024.12
2016-11-30T12:06:38.936Z,1024.14
2016-11-30T12:07:39.578Z,1024.11
2016-11-30T12:08:40.228Z,1024.16
2016-11-30T12:09:40.875Z,1024.26
2016-11-30T12:10:41.504Z,1024.23
2016-11-30T12:11:42.138Z,1024.23
2016-11-30T12:12:42.769Z,1024.18
2016-11-30T12:13:43.498Z,1024.08
2016-11-30T12:14:44.123Z,1024.05
2016-11-30T12:15:44.785Z,1023.98
2016-11-30T12:16:45.452Z,1023.98